Time;durP1;ratioP1;P1;durP2;ratioP2;P2;SDS_P1;SDS_P2;PMS_P1;PMS_P2;Temp;Humidity;BMP_temperature;BMP_pressure;BME280_temperature;BME280_humidity;BME280_pressure;Samples;Min_cycle;Max_cycle;Signal;HPM_P1;HPM_P2
2022/01/04 00:00:13;;;;;;;1.23;0.80;;;;;18.20;99163.00;;;;2088054;28;20220;-54
2022/01/04 00:01:13;;;;;;;1.08;0.73;;;;;18.20;99157.00;;;;2087729;28;20208;-55
2022/01/04 00:02:14;;;;;;;0.80;0.50;;;;;18.20;99158.00;;;;2088065;28;20282;-55
2022/01/04 00:03:14;;;;;;;0.97;0.70;;;;;18.20;99160.00;;;;2088008;28;20213;-55
2022/01/04 00:04:14;;;;;;;0.90;0.70;;;;;18.20;99155.00;;;;2088180;28;20212;-55
2022/01/04 00:05:15;;;;;;;0.90;0.57;;;;;18.20;99155.00;;;;2088172;28;20295;-55
2022/01/04 00:06:15;;;;;;;0.90;0.50;;;;;18.20;99150.00;;;;2088038;28;20251;-55
2022/01/04 00:07:15;;;;;;;1.03;0.60;;;;;18.20;99149.00;;;;2088282;28;20703;-54
2022/01/04 00:08:16;;;;;;;0.70;0.70;;;;;18.20;99148.00;;;;2088079;28;20552;-55
2022/01/04 00:09:17;;;;;;;0.80;0.60;;;;;18.20;99147.00;;;;2088094;28;20699;-55
2022/01/04 00:10:22;;;;;;;1.00;0.70;;;;;18.20;99144.00;;;;2087995;28;20530;-55
2022/01/04 00:11:32;;;;;;;1.13;0.50;;;;;18.20;99140.00;;;;2087994;28;20711;-55
2022/01/04 00:13:53;;;;;;;1.25;0.82;;;;;18.20;99139.00;;;;2087234;28;20327;-54
2022/01/04 00:14:54;;;;;;;0.75;0.65;;;;;18.20;99137.00;;;;2087693;28;20235;-54
2022/01/04 00:15:54;;;;;;;0.97;0.50;;;;;18.20;99133.00;;;;2087898;28;20631;-54
2022/01/04 00:16:55;;;;;;;0.70;0.60;;;;;18.20;99131.00;;;;2087809;28;20487;-54
2022/01/04 00:17:55;;;;;;;1.00;0.70;;;;;18.20;99131.00;;;;2087916;28;20208;-54
2022/01/04 00:18:56;;;;;;;0.90;0.60;;;;;18.20;99125.00;;;;2087304;28;20209;-54
2022/01/04 00:19:56;;;;;;;1.00;0.60;;;;;18.20;99128.00;;;;2087435;28;20556;-54
2022/01/04 00:20:56;;;;;;;0.70;0.50;;;;;18.20;99127.00;;;;2086775;28;20850;-54
2022/01/04 00:21:57;;;;;;;0.77;0.70;;;;;18.20;99122.00;;;;2087888;28;20719;-55
2022/01/04 00:22:58;;;;;;;1.15;0.70;;;;;18.20;99121.00;;;;2087999;28;20213;-54
2022/01/04 00:23:58;;;;;;;1.20;0.60;;;;;18.20;99124.00;;;;2087893;28;20209;-54
2022/01/04 00:24:59;;;;;;;1.00;0.60;;;;;18.20;99122.00;;;;2088052;28;20591;-54
2022/01/04 00:25:59;;;;;;;0.70;0.53;;;;;18.20;99118.00;;;;2087280;28;20723;-54
2022/01/04 00:26:59;;;;;;;2.53;0.63;;;;;18.20;99124.00;;;;2087899;28;20290;-55
2022/01/04 00:28:01;;;;;;;0.70;0.60;;;;;18.20;99113.00;;;;2087979;28;20205;-54
2022/01/04 00:29:01;;;;;;;0.95;0.65;;;;;18.20;99115.00;;;;2088075;28;20270;-54
2022/01/04 00:30:03;;;;;;;1.30;0.87;;;;;18.20;99113.00;;;;2088000;28;20217;-55
2022/01/04 00:31:04;;;;;;;1.00;0.65;;;;;18.20;99102.00;;;;2087011;28;20209;-54
2022/01/04 00:32:05;;;;;;;0.60;0.50;;;;;18.20;99108.00;;;;2087330;28;20241;-55
2022/01/04 00:33:06;;;;;;;0.70;0.60;;;;;18.20;99105.00;;;;2087940;28;20950;-54
2022/01/04 00:34:06;;;;;;;0.70;0.50;;;;;18.20;99100.00;;;;2087876;28;20443;-55
2022/01/04 00:35:07;;;;;;;0.90;0.67;;;;;18.20;99099.00;;;;2087366;28;20213;-54
2022/01/04 00:36:07;;;;;;;0.80;0.60;;;;;18.20;99093.00;;;;2087060;28;20958;-54
2022/01/04 00:37:08;;;;;;;1.00;0.70;;;;;18.20;99085.00;;;;2087339;28;20209;-54
2022/01/04 00:38:08;;;;;;;0.80;0.60;;;;;18.20;99098.00;;;;2087511;28;20217;-55
2022/01/04 00:39:08;;;;;;;0.70;0.60;;;;;18.20;99084.00;;;;2088795;28;20213;-54
2022/01/04 00:40:09;;;;;;;0.73;0.60;;;;;18.20;99082.00;;;;2088935;28;20577;-54
2022/01/04 00:41:09;;;;;;;0.77;0.57;;;;;18.20;99080.00;;;;2088908;28;20216;-54
2022/01/04 00:42:09;;;;;;;0.80;0.60;;;;;18.20;99078.00;;;;2089079;28;20236;-54
2022/01/04 00:43:10;;;;;;;1.00;0.73;;;;;18.20;99069.00;;;;2089119;28;20212;-54
2022/01/04 00:44:10;;;;;;;0.90;0.50;;;;;18.20;99076.00;;;;2089023;28;20217;-55
2022/01/04 00:45:10;;;;;;;1.00;0.77;;;;;18.20;99070.00;;;;2089354;28;20222;-54
2022/01/04 00:46:16;;;;;;;0.90;0.80;;;;;18.20;99068.00;;;;2088950;28;20213;-55
2022/01/04 00:47:19;;;;;;;1.20;0.70;;;;;18.20;99070.00;;;;2078547;28;20209;-54
2022/01/04 00:49:22;;;;;;;0.77;0.60;;;;;18.20;99063.00;;;;2091878;28;20586;-54
2022/01/04 00:50:22;;;;;;;0.88;0.52;;;;;18.20;99072.00;;;;2088157;28;20297;-54
2022/01/04 00:51:23;;;;;;;0.80;0.60;;;;;18.20;99068.00;;;;2085866;28;20208;-55
2022/01/04 00:52:23;;;;;;;0.90;0.60;;;;;18.20;99071.00;;;;2089003;28;20359;-54
2022/01/04 00:53:23;;;;;;;0.80;0.60;;;;;18.20;99069.00;;;;2073651;28;20212;-55
2022/01/04 00:54:24;;;;;;;0.63;0.50;;;;;18.20;99070.00;;;;2092230;28;20683;-54
2022/01/04 00:55:24;;;;;;;0.70;0.47;;;;;18.20;99070.00;;;;2088225;28;20736;-54
2022/01/04 00:56:24;;;;;;;0.80;0.60;;;;;18.20;99067.00;;;;2085965;28;20232;-55
2022/01/04 00:57:25;;;;;;;0.90;0.60;;;;;18.20;99059.00;;;;2088153;28;20208;-54
2022/01/04 00:58:25;;;;;;;0.90;0.70;;;;;18.20;99056.00;;;;2089333;28;20258;-55
2022/01/04 00:59:25;;;;;;;0.73;0.50;;;;;18.20;99051.00;;;;2089573;28;20208;-54
2022/01/04 01:00:26;;;;;;;0.60;0.40;;;;;18.20;99054.00;;;;2089264;28;20212;-55
2022/01/04 01:01:27;;;;;;;0.90;0.60;;;;;18.20;99054.00;;;;2089354;28;20287;-54
2022/01/04 01:02:27;;;;;;;0.80;0.53;;;;;18.20;99053.00;;;;2089432;28;20263;-55
2022/01/04 01:03:27;;;;;;;0.87;0.80;;;;;18.20;99038.00;;;;2089423;28;20209;-54
2022/01/04 01:04:27;;;;;;;1.33;0.70;;;;;18.20;99038.00;;;;2089433;28;20208;-54
2022/01/04 01:05:28;;;;;;;0.90;0.80;;;;;18.20;99041.00;;;;2089413;28;20209;-54
2022/01/04 01:06:28;;;;;;;0.70;0.50;;;;;18.20;99033.00;;;;2088552;28;20205;-54
2022/01/04 01:07:29;;;;;;;0.80;0.50;;;;;18.20;99029.00;;;;2088667;28;20735;-54
2022/01/04 01:08:29;;;;;;;0.73;0.50;;;;;18.10;99024.00;;;;2089401;28;20684;-54
2022/01/04 01:09:34;;;;;;;0.60;0.40;;;;;18.20;99022.00;;;;2089469;28;20271;-54
2022/01/04 01:10:43;;;;;;;0.80;0.50;;;;;18.20;99024.00;;;;2089136;28;20216;-54
2022/01/04 01:11:43;;;;;;;1.02;0.55;;;;;18.20;99029.00;;;;2089379;28;20213;-54
2022/01/04 01:12:43;;;;;;;0.70;0.47;;;;;18.20;99018.00;;;;2089032;28;20579;-54
2022/01/04 01:13:44;;;;;;;0.70;0.60;;;;;18.20;99014.00;;;;2089360;28;20739;-54
2022/01/04 01:14:44;;;;;;;0.90;0.57;;;;;18.20;99019.00;;;;2089401;28;20711;-54
2022/01/04 01:15:45;;;;;;;0.70;0.60;;;;;18.20;99016.00;;;;2089331;28;20212;-54
2022/01/04 01:16:46;;;;;;;0.80;0.50;;;;;18.20;99014.00;;;;2088986;28;20213;-54
2022/01/04 01:17:46;;;;;;;0.90;0.60;;;;;18.20;99012.00;;;;2089385;28;20228;-54
2022/01/04 01:18:46;;;;;;;1.10;0.60;;;;;18.20;99011.00;;;;2089268;28;20237;-54
2022/01/04 01:19:47;;;;;;;0.70;0.60;;;;;18.20;99008.00;;;;2089347;28;20692;-54
2022/01/04 01:20:48;;;;;;;1.00;0.50;;;;;18.20;99010.00;;;;2089154;28;20205;-54
2022/01/04 01:21:48;;;;;;;0.70;0.60;;;;;18.20;99007.00;;;;2089411;28;20279;-54
2022/01/04 01:22:49;;;;;;;0.77;0.50;;;;;18.20;98996.00;;;;2089283;28;20455;-53
2022/01/04 01:23:49;;;;;;;0.90;0.50;;;;;18.20;99004.00;;;;2089253;28;20232;-54
2022/01/04 01:24:49;;;;;;;1.00;0.70;;;;;18.20;99007.00;;;;2089338;28;20209;-54
2022/01/04 01:25:50;;;;;;;0.83;0.60;;;;;18.20;99001.00;;;;2089235;28;20223;-54
2022/01/04 01:26:50;;;;;;;0.73;0.50;;;;;18.20;99001.00;;;;2089007;28;20224;-55
2022/01/04 01:27:50;;;;;;;0.70;0.50;;;;;18.10;98995.00;;;;2089260;28;20244;-54
2022/01/04 01:28:51;;;;;;;0.80;0.50;;;;;18.20;98990.00;;;;2089220;28;20232;-54
2022/01/04 01:29:51;;;;;;;0.87;0.50;;;;;18.20;98988.00;;;;2089180;28;20216;-54
2022/01/04 01:30:51;;;;;;;0.90;0.50;;;;;18.20;98981.00;;;;2088920;28;20255;-54
2022/01/04 01:31:52;;;;;;;0.97;0.67;;;;;18.20;98979.00;;;;2089236;28;20216;-54
2022/01/04 01:32:52;;;;;;;1.17;0.50;;;;;18.20;98986.00;;;;2089106;28;20224;-54
2022/01/04 01:33:53;;;;;;;0.73;0.50;;;;;18.20;98979.00;;;;2089182;28;20577;-54
2022/01/04 01:34:53;;;;;;;0.70;0.50;;;;;18.10;98990.00;;;;2088263;28;20782;-59
2022/01/04 01:35:54;;;;;;;1.67;0.83;;;;;18.10;98984.00;;;;2089064;28;20205;-55
2022/01/04 01:36:55;;;;;;;0.60;0.40;;;;;18.20;98983.00;;;;2089084;28;20685;-55
2022/01/04 01:37:55;;;;;;;0.70;0.40;;;;;18.10;98981.00;;;;2089168;28;20216;-55
2022/01/04 01:38:55;;;;;;;0.60;0.40;;;;;18.20;98980.00;;;;2089301;28;20213;-54
2022/01/04 01:39:56;;;;;;;1.23;0.63;;;;;18.10;98978.00;;;;2089171;28;20224;-54
2022/01/04 01:40:56;;;;;;;0.80;0.60;;;;;18.10;98975.00;;;;2088991;28;20205;-55
2022/01/04 01:41:56;;;;;;;1.60;0.60;;;;;18.10;98975.00;;;;2089089;28;20216;-55
2022/01/04 01:42:57;;;;;;;0.87;0.63;;;;;18.10;98974.00;;;;2089137;28;20266;-54
2022/01/04 01:43:57;;;;;;;0.70;0.50;;;;;18.10;98969.00;;;;2089067;28;20208;-55
2022/01/04 01:44:57;;;;;;;0.87;0.50;;;;;18.20;98965.00;;;;2089108;28;20208;-54
2022/01/04 01:45:58;;;;;;;0.97;0.50;;;;;18.10;98961.00;;;;2089077;28;20204;-55
2022/01/04 01:46:58;;;;;;;0.77;0.50;;;;;18.20;98962.00;;;;2089071;28;20744;-55
2022/01/04 01:47:59;;;;;;;1.13;0.53;;;;;18.10;98963.00;;;;2088995;28;20543;-54
2022/01/04 01:48:59;;;;;;;1.30;0.60;;;;;18.10;98962.00;;;;2088602;28;20224;-54
2022/01/04 01:49:59;;;;;;;1.23;0.60;;;;;18.20;98964.00;;;;2088366;28;20201;-53
2022/01/04 01:51:00;;;;;;;0.90;0.53;;;;;18.10;98968.00;;;;2088577;28;20227;-54
2022/01/04 01:52:01;;;;;;;0.60;0.40;;;;;18.10;98967.00;;;;2089153;28;20229;-54
2022/01/04 01:53:01;;;;;;;0.90;0.53;;;;;18.10;98969.00;;;;2089227;28;20300;-55
2022/01/04 01:54:01;;;;;;;1.23;0.60;;;;;18.10;98969.00;;;;2089194;28;20212;-54
2022/01/04 01:55:02;;;;;;;0.60;0.50;;;;;18.10;98963.00;;;;2088113;28;20216;-54
2022/01/04 01:56:02;;;;;;;0.90;0.53;;;;;18.10;98971.00;;;;2088106;28;20201;-54
2022/01/04 01:57:03;;;;;;;0.70;0.40;;;;;18.10;98964.00;;;;2089013;28;20201;-55
2022/01/04 01:58:03;;;;;;;0.80;0.60;;;;;18.10;98965.00;;;;2089051;28;20292;-54
2022/01/04 01:59:04;;;;;;;0.80;0.50;;;;;18.10;98960.00;;;;2088981;28;20205;-54
2022/01/04 02:00:06;;;;;;;1.00;0.60;;;;;18.10;98966.00;;;;2088948;28;20670;-55
2022/01/04 02:01:06;;;;;;;0.88;0.52;;;;;18.10;98968.00;;;;2088698;28;20212;-54
2022/01/04 02:02:06;;;;;;;0.70;0.50;;;;;18.10;98965.00;;;;2088960;28;20232;-54
2022/01/04 02:03:07;;;;;;;1.20;0.53;;;;;18.10;98967.00;;;;2088869;28;20204;-54
2022/01/04 02:04:07;;;;;;;0.60;0.40;;;;;18.10;98968.00;;;;2089042;28;20228;-54
2022/01/04 02:05:08;;;;;;;0.70;0.40;;;;;18.10;98959.00;;;;2088817;28;20247;-54
2022/01/04 02:06:08;;;;;;;0.60;0.40;;;;;18.20;98968.00;;;;2088910;28;20696;-54
2022/01/04 02:07:08;;;;;;;0.80;0.53;;;;;18.10;98956.00;;;;2088112;28;20232;-55
2022/01/04 02:08:09;;;;;;;1.00;0.70;;;;;18.10;98958.00;;;;2080055;28;20237;-54
2022/01/04 02:09:09;;;;;;;0.97;0.60;;;;;18.10;98958.00;;;;2088102;28;20236;-55
2022/01/04 02:10:10;;;;;;;0.60;0.40;;;;;18.20;98956.00;;;;2088825;28;20299;-54
2022/01/04 02:11:10;;;;;;;0.90;0.40;;;;;18.20;98944.00;;;;2084254;28;20216;-55
2022/01/04 02:12:11;;;;;;;0.70;0.40;;;;;18.10;98942.00;;;;2080066;28;20401;-55
2022/01/04 02:13:11;;;;;;;0.83;0.50;;;;;18.10;98942.00;;;;2077914;28;20233;-54
2022/01/04 02:14:11;;;;;;;0.73;0.60;;;;;18.10;98938.00;;;;2088190;28;20292;-54
2022/01/04 02:15:13;;;;;;;0.90;0.60;;;;;18.10;98937.00;;;;2088780;28;20215;-54
2022/01/04 02:16:13;;;;;;;0.70;0.50;;;;;18.10;98939.00;;;;2088787;28;20217;-54
2022/01/04 02:17:14;;;;;;;0.73;0.57;;;;;18.10;98942.00;;;;2088855;28;20213;-54
2022/01/04 02:18:14;;;;;;;0.77;0.50;;;;;18.10;98942.00;;;;2077296;28;20209;-55
2022/01/04 02:19:16;;;;;;;0.73;0.60;;;;;18.10;98936.00;;;;2096541;28;20277;-54
2022/01/04 02:20:17;;;;;;;1.40;0.60;;;;;18.10;98935.00;;;;2084180;28;20220;-54
2022/01/04 02:21:17;;;;;;;0.70;0.50;;;;;18.10;98929.00;;;;2088038;28;20235;-54
2022/01/04 02:22:18;;;;;;;0.90;0.57;;;;;18.10;98932.00;;;;2088593;28;20212;-54
2022/01/04 02:23:19;;;;;;;0.80;0.50;;;;;18.10;98939.00;;;;2088853;28;20205;-54
2022/01/04 02:24:22;;;;;;;0.77;0.60;;;;;18.10;98932.00;;;;2088815;28;20273;-54
2022/01/04 02:25:22;;;;;;;0.95;0.50;;;;;18.10;98921.00;;;;2088205;28;20218;-54
2022/01/04 02:26:23;;;;;;;0.70;0.40;;;;;18.10;98915.00;;;;2088111;28;20213;-54
2022/01/04 02:27:23;;;;;;;0.90;0.50;;;;;18.10;98929.00;;;;2088776;28;20565;-54
2022/01/04 02:28:23;;;;;;;0.70;0.50;;;;;18.10;98923.00;;;;2088719;28;20602;-54
2022/01/04 02:29:24;;;;;;;0.90;0.60;;;;;18.10;98920.00;;;;2088135;28;20288;-54
2022/01/04 02:30:24;;;;;;;0.80;0.50;;;;;18.10;98927.00;;;;2087968;28;20205;-55
2022/01/04 02:31:25;;;;;;;0.63;0.50;;;;;18.10;98923.00;;;;2088750;28;20208;-54
2022/01/04 02:32:25;;;;;;;0.90;0.50;;;;;18.10;98927.00;;;;2088641;28;20227;-54
2022/01/04 02:33:25;;;;;;;1.13;0.60;;;;;18.10;98927.00;;;;2088759;28;20284;-55
2022/01/04 02:34:25;;;;;;;0.60;0.40;;;;;18.10;98917.00;;;;2088790;28;20561;-54
2022/01/04 02:35:30;;;;;;;0.70;0.50;;;;;18.10;98924.00;;;;2087756;28;20949;-54
2022/01/04 02:36:30;;;;;;;0.80;0.45;;;;;18.10;98924.00;;;;2087990;28;20607;-55
2022/01/04 02:37:32;;;;;;;0.70;0.50;;;;;18.10;98918.00;;;;2087775;28;20320;-54
2022/01/04 02:38:33;;;;;;;0.75;0.60;;;;;18.10;98920.00;;;;2087073;28;20739;-55
2022/01/04 02:39:37;;;;;;;0.70;0.50;;;;;18.10;98918.00;;;;2087522;28;20239;-55
2022/01/04 02:40:37;;;;;;;0.80;0.70;;;;;18.10;98919.00;;;;2088086;28;20220;-55
2022/01/04 02:41:37;;;;;;;0.90;0.50;;;;;18.10;98923.00;;;;2088129;28;20719;-55
2022/01/04 02:42:38;;;;;;;1.00;0.53;;;;;18.10;98917.00;;;;2087977;28;20676;-54
2022/01/04 02:43:38;;;;;;;1.20;0.53;;;;;18.10;98916.00;;;;2088136;28;20213;-55
2022/01/04 02:44:39;;;;;;;0.83;0.53;;;;;18.10;98910.00;;;;2088290;28;20679;-54
2022/01/04 02:45:39;;;;;;;0.80;0.50;;;;;18.10;98917.00;;;;2088229;28;20220;-55
2022/01/04 02:46:39;;;;;;;1.20;0.60;;;;;18.10;98911.00;;;;2088347;28;20700;-54
2022/01/04 02:47:40;;;;;;;0.90;0.50;;;;;18.10;98914.00;;;;2088642;28;20574;-54
2022/01/04 02:48:42;;;;;;;0.70;0.60;;;;;18.10;98904.00;;;;2088648;28;20231;-54
2022/01/04 02:49:42;;;;;;;0.88;0.60;;;;;18.10;98907.00;;;;2088581;28;20212;-54
2022/01/04 02:50:43;;;;;;;0.70;0.60;;;;;18.10;98896.00;;;;2087699;28;20287;-54
2022/01/04 02:51:43;;;;;;;0.70;0.40;;;;;18.10;98899.00;;;;2087918;28;20217;-54
2022/01/04 02:52:43;;;;;;;1.00;0.70;;;;;18.10;98891.00;;;;2088608;28;20209;-54
2022/01/04 02:53:44;;;;;;;0.80;0.60;;;;;18.10;98891.00;;;;2088416;28;20325;-54
2022/01/04 02:54:44;;;;;;;0.70;0.67;;;;;18.10;98896.00;;;;2088479;28;20208;-54
2022/01/04 02:55:47;;;;;;;0.70;0.50;;;;;18.10;98893.00;;;;2088656;28;20213;-54
2022/01/04 02:56:48;;;;;;;0.80;0.50;;;;;18.10;98902.00;;;;2087433;28;20228;-54
2022/01/04 02:57:48;;;;;;;0.60;0.40;;;;;18.10;98889.00;;;;2087779;28;20835;-54
2022/01/04 02:58:48;;;;;;;0.77;0.50;;;;;18.10;98890.00;;;;2088510;28;20724;-54
2022/01/04 02:59:49;;;;;;;0.70;0.50;;;;;18.10;98892.00;;;;2088507;28;20238;-55
2022/01/04 03:00:49;;;;;;;0.70;0.50;;;;;18.10;98891.00;;;;2088221;28;20213;-54
2022/01/04 03:01:49;;;;;;;0.70;0.63;;;;;18.10;98900.00;;;;2088476;28;20278;-54
2022/01/04 03:02:50;;;;;;;0.87;0.57;;;;;18.10;98892.00;;;;2088398;28;20213;-54
2022/01/04 03:03:50;;;;;;;0.73;0.50;;;;;18.10;98882.00;;;;2088589;28;20223;-54
2022/01/04 03:04:50;;;;;;;0.60;0.50;;;;;18.10;98891.00;;;;2088507;28;20734;-54
2022/01/04 03:05:51;;;;;;;0.90;0.63;;;;;18.10;98892.00;;;;2077783;28;20700;-55
2022/01/04 03:06:51;;;;;;;0.93;0.67;;;;;18.10;98897.00;;;;2091371;28;20229;-54
2022/01/04 03:07:51;;;;;;;0.70;0.50;;;;;18.10;98899.00;;;;2090050;28;20228;-54
2022/01/04 03:08:52;;;;;;;0.80;0.50;;;;;18.10;98896.00;;;;2087927;28;20220;-54
2022/01/04 03:09:53;;;;;;;0.87;0.50;;;;;18.10;98900.00;;;;2087888;28;20217;-55
2022/01/04 03:10:54;;;;;;;0.80;0.60;;;;;18.10;98892.00;;;;2087496;28;20212;-54
2022/01/04 03:11:54;;;;;;;0.60;0.40;;;;;18.10;98898.00;;;;2087982;28;20209;-54
2022/01/04 03:12:54;;;;;;;0.80;0.47;;;;;18.10;98900.00;;;;2087685;28;20209;-54
2022/01/04 03:13:55;;;;;;;0.60;0.40;;;;;18.10;98887.00;;;;2087935;28;20215;-54
2022/01/04 03:14:55;;;;;;;0.60;0.40;;;;;18.10;98893.00;;;;2087771;28;20213;-54
2022/01/04 03:15:55;;;;;;;0.70;0.60;;;;;18.10;98895.00;;;;2088012;28;20236;-54
2022/01/04 03:16:55;;;;;;;0.83;0.60;;;;;18.10;98888.00;;;;2087689;28;20212;-54
2022/01/04 03:17:56;;;;;;;0.60;0.50;;;;;18.10;98890.00;;;;2087940;28;20227;-54
2022/01/04 03:19:10;;;;;;;0.70;0.50;;;;;18.10;98876.00;;;;2088462;28;20212;-55
2022/01/04 03:20:10;;;;;;;0.70;0.40;;;;;18.10;98876.00;;;;2086186;28;20212;-55
2022/01/04 03:21:10;;;;;;;0.80;0.60;;;;;18.10;98876.00;;;;2086391;28;20240;-53
2022/01/04 03:22:11;;;;;;;0.80;0.50;;;;;18.10;98882.00;;;;2088446;28;20285;-55
2022/01/04 03:23:11;;;;;;;0.80;0.57;;;;;18.10;98879.00;;;;2088380;28;20216;-55
2022/01/04 03:24:13;;;;;;;1.00;0.50;;;;;18.10;98873.00;;;;2088353;28;20239;-55
2022/01/04 03:25:13;;;;;;;0.70;0.50;;;;;18.10;98870.00;;;;2087646;28;20904;-55
2022/01/04 03:26:13;;;;;;;0.90;0.53;;;;;18.10;98868.00;;;;2087393;28;20205;-55
2022/01/04 03:27:13;;;;;;;1.00;0.57;;;;;18.10;98866.00;;;;2088236;28;20209;-54
2022/01/04 03:28:16;;;;;;;0.60;0.40;;;;;18.10;98862.00;;;;2088111;28;20213;-55
2022/01/04 03:29:16;;;;;;;0.80;0.40;;;;;18.10;98860.00;;;;2087949;28;20204;-55
2022/01/04 03:30:17;;;;;;;0.80;0.60;;;;;18.10;98858.00;;;;2088176;28;20204;-55
2022/01/04 03:31:17;;;;;;;0.80;0.63;;;;;18.10;98853.00;;;;2084377;28;20255;-54
2022/01/04 03:32:17;;;;;;;0.90;0.50;;;;;18.10;98851.00;;;;2088204;28;20200;-55
2022/01/04 03:33:18;;;;;;;0.70;0.50;;;;;18.10;98845.00;;;;2088224;28;20213;-54
2022/01/04 03:34:18;;;;;;;0.73;0.47;;;;;18.10;98845.00;;;;2088142;28;20208;-54
2022/01/04 03:35:18;;;;;;;0.70;0.47;;;;;18.10;98833.00;;;;2088254;28;20308;-55
2022/01/04 03:36:23;;;;;;;0.60;0.50;;;;;18.10;98833.00;;;;2088088;28;20260;-54
2022/01/04 03:37:24;;;;;;;0.70;0.50;;;;;18.10;98833.00;;;;2088121;28;20767;-54
2022/01/04 03:38:24;;;;;;;0.70;0.40;;;;;18.10;98834.00;;;;2087011;28;20221;-55
2022/01/04 03:39:24;;;;;;;0.80;0.60;;;;;18.10;98830.00;;;;2088122;28;20219;-54
2022/01/04 03:40:25;;;;;;;1.07;0.70;;;;;18.00;98827.00;;;;2087763;28;20217;-54
2022/01/04 03:41:26;;;;;;;0.73;0.60;;;;;18.10;98822.00;;;;2088123;28;20688;-54
2022/01/04 03:42:26;;;;;;;0.60;0.40;;;;;18.10;98818.00;;;;2088161;28;20683;-54
2022/01/04 03:43:27;;;;;;;0.70;0.50;;;;;18.10;98819.00;;;;2088167;28;20989;-54
2022/01/04 03:44:28;;;;;;;1.02;0.50;;;;;18.10;98822.00;;;;2088142;28;20216;-54
2022/01/04 03:45:28;;;;;;;0.60;0.40;;;;;18.10;98820.00;;;;2088153;28;20208;-54
2022/01/04 03:46:28;;;;;;;1.00;0.60;;;;;18.10;98804.00;;;;2088179;28;20204;-54
2022/01/04 03:47:29;;;;;;;0.60;0.50;;;;;18.10;98807.00;;;;2088007;28;20205;-54
2022/01/04 03:48:29;;;;;;;0.80;0.60;;;;;18.10;98809.00;;;;2080369;28;20215;-54
2022/01/04 03:49:29;;;;;;;0.73;0.50;;;;;18.10;98813.00;;;;2095205;28;20242;-54
2022/01/04 03:50:30;;;;;;;0.80;0.60;;;;;18.10;98807.00;;;;2090975;28;20217;-54
2022/01/04 03:51:30;;;;;;;0.60;0.40;;;;;18.10;98798.00;;;;2088072;28;20308;-54
2022/01/04 03:52:30;;;;;;;0.70;0.50;;;;;18.10;98807.00;;;;2088054;28;20235;-54
2022/01/04 03:53:31;;;;;;;1.20;0.63;;;;;18.10;98809.00;;;;2088071;28;20246;-54
2022/01/04 03:54:31;;;;;;;0.90;0.57;;;;;18.10;98800.00;;;;2088132;28;20677;-54
2022/01/04 03:55:31;;;;;;;0.80;0.50;;;;;18.10;98794.00;;;;2088019;28;20255;-55
2022/01/04 03:56:32;;;;;;;0.83;0.57;;;;;18.10;98794.00;;;;2087719;28;20916;-54
2022/01/04 03:57:33;;;;;;;0.60;0.43;;;;;18.10;98786.00;;;;2087533;28;20216;-54
2022/01/04 03:58:33;;;;;;;0.65;0.50;;;;;18.10;98782.00;;;;2087931;28;20267;-54
2022/01/04 03:59:33;;;;;;;0.60;0.40;;;;;18.10;98776.00;;;;2088126;28;20278;-55
2022/01/04 04:00:34;;;;;;;1.23;0.57;;;;;18.10;98774.00;;;;2087755;28;20217;-54
2022/01/04 04:01:34;;;;;;;0.60;0.50;;;;;18.10;98778.00;;;;2088074;28;20271;-54
2022/01/04 04:02:34;;;;;;;0.70;0.50;;;;;18.10;98775.00;;;;2087471;28;20299;-54
2022/01/04 04:03:35;;;;;;;0.60;0.47;;;;;18.10;98770.00;;;;2087167;28;20221;-54
2022/01/04 04:04:36;;;;;;;0.80;0.50;;;;;18.10;98770.00;;;;2088022;28;20227;-54
2022/01/04 04:05:36;;;;;;;0.60;0.40;;;;;18.10;98772.00;;;;2088107;28;20464;-54
2022/01/04 04:06:36;;;;;;;0.70;0.50;;;;;18.10;98757.00;;;;2087943;28;20591;-54
2022/01/04 04:07:37;;;;;;;0.80;0.50;;;;;18.10;98759.00;;;;2087893;28;20758;-54
2022/01/04 04:08:37;;;;;;;0.70;0.60;;;;;18.10;98758.00;;;;2087995;28;20232;-55
2022/01/04 04:09:37;;;;;;;0.60;0.40;;;;;18.10;98761.00;;;;2087874;28;20220;-54
2022/01/04 04:10:38;;;;;;;0.93;0.50;;;;;18.10;98757.00;;;;2087801;28;20655;-54
2022/01/04 04:11:38;;;;;;;0.70;0.50;;;;;18.10;98757.00;;;;2088051;28;20567;-54
2022/01/04 04:12:38;;;;;;;0.73;0.50;;;;;18.10;98753.00;;;;2087989;28;20208;-54
2022/01/04 04:13:39;;;;;;;0.90;0.50;;;;;18.10;98753.00;;;;2087596;28;20285;-54
2022/01/04 04:14:40;;;;;;;0.80;0.50;;;;;18.10;98746.00;;;;2087953;28;20662;-54
2022/01/04 04:15:40;;;;;;;0.80;0.50;;;;;18.10;98745.00;;;;2087999;28;20649;-54
2022/01/04 04:16:40;;;;;;;0.90;0.60;;;;;18.10;98743.00;;;;2087888;28;20220;-54
2022/01/04 04:17:41;;;;;;;0.60;0.40;;;;;18.10;98740.00;;;;2087634;28;20298;-54
2022/01/04 04:18:41;;;;;;;0.70;0.43;;;;;18.10;98732.00;;;;2088018;28;20213;-54
2022/01/04 04:19:41;;;;;;;0.70;0.47;;;;;18.10;98729.00;;;;2088017;28;20220;-54
2022/01/04 04:20:42;;;;;;;0.70;0.40;;;;;18.00;98724.00;;;;2087778;28;20247;-54
2022/01/04 04:21:42;;;;;;;0.70;0.47;;;;;18.10;98736.00;;;;2086054;28;20209;-55
2022/01/04 04:22:43;;;;;;;0.60;0.50;;;;;18.10;98724.00;;;;2088012;28;20235;-54
2022/01/04 04:23:43;;;;;;;0.80;0.50;;;;;18.10;98717.00;;;;2087758;28;20205;-54
2022/01/04 04:24:44;;;;;;;0.80;0.50;;;;;18.10;98720.00;;;;2087875;28;20201;-54
2022/01/04 04:25:44;;;;;;;1.00;0.40;;;;;18.10;98720.00;;;;2087956;28;20572;-55
2022/01/04 04:26:44;;;;;;;0.73;0.47;;;;;18.10;98715.00;;;;2087938;28;20798;-54
2022/01/04 04:27:45;;;;;;;0.60;0.37;;;;;18.10;98711.00;;;;2087816;28;20222;-54
2022/01/04 04:28:45;;;;;;;0.67;0.40;;;;;18.10;98712.00;;;;2087701;28;20205;-54
2022/01/04 04:29:45;;;;;;;0.80;0.50;;;;;18.10;98711.00;;;;2087047;28;20266;-54
2022/01/04 04:30:46;;;;;;;0.70;0.60;;;;;18.10;98712.00;;;;2087316;28;20243;-55
2022/01/04 04:31:46;;;;;;;1.00;0.53;;;;;18.10;98711.00;;;;2087569;28;20227;-54
2022/01/04 04:32:47;;;;;;;0.90;0.50;;;;;18.10;98704.00;;;;2087439;28;20715;-54
2022/01/04 04:33:47;;;;;;;0.70;0.60;;;;;18.10;98704.00;;;;2087129;28;20688;-54
2022/01/04 04:34:48;;;;;;;0.70;0.50;;;;;18.10;98705.00;;;;2087352;28;20523;-54
2022/01/04 04:35:48;;;;;;;0.80;0.50;;;;;18.10;98703.00;;;;2087322;28;20602;-54
2022/01/04 04:36:48;;;;;;;0.80;0.50;;;;;18.10;98695.00;;;;2086876;28;20217;-54
2022/01/04 04:37:49;;;;;;;0.77;0.40;;;;;18.10;98700.00;;;;2087305;28;20216;-55
2022/01/04 04:38:49;;;;;;;0.60;0.50;;;;;18.10;98706.00;;;;2087571;28;20248;-55
2022/01/04 04:39:49;;;;;;;0.63;0.40;;;;;18.10;98701.00;;;;2087962;28;20228;-54
2022/01/04 04:40:50;;;;;;;0.70;0.47;;;;;18.10;98696.00;;;;2086894;28;22368;-57
2022/01/04 04:41:50;;;;;;;0.80;0.50;;;;;18.10;98700.00;;;;2087834;28;20224;-57
2022/01/04 04:42:50;;;;;;;0.60;0.40;;;;;18.10;98689.00;;;;2083744;28;20220;-56
2022/01/04 04:43:54;;;;;;;0.60;0.50;;;;;18.10;98696.00;;;;2087547;28;20239;-55
2022/01/04 04:44:54;;;;;;;0.75;0.50;;;;;18.10;98687.00;;;;2078782;28;20628;-55
2022/01/04 04:45:54;;;;;;;0.70;0.60;;;;;18.10;98686.00;;;;2087143;28;20216;-54
2022/01/04 04:46:55;;;;;;;0.90;0.50;;;;;18.10;98690.00;;;;2083655;28;20228;-54
2022/01/04 04:47:55;;;;;;;1.10;0.50;;;;;18.00;98688.00;;;;2087075;28;20228;-54
2022/01/04 04:48:55;;;;;;;0.70;0.43;;;;;18.10;98692.00;;;;2086646;28;20224;-54
2022/01/04 04:49:56;;;;;;;1.83;0.50;;;;;18.10;98683.00;;;;2077021;28;20213;-55
2022/01/04 04:50:56;;;;;;;0.70;0.50;;;;;18.10;98683.00;;;;2094722;28;20215;-55
2022/01/04 04:51:59;;;;;;;0.97;0.60;;;;;18.10;98682.00;;;;2093881;28;20204;-54
2022/01/04 04:53:00;;;;;;;1.05;0.65;;;;;18.00;98682.00;;;;2085488;28;20216;-54
2022/01/04 04:54:00;;;;;;;0.73;0.47;;;;;18.10;98674.00;;;;2087532;28;20216;-55
2022/01/04 04:55:01;;;;;;;0.80;0.50;;;;;18.10;98674.00;;;;2083430;28;20463;-54
2022/01/04 04:56:01;;;;;;;0.60;0.40;;;;;18.10;98670.00;;;;2087168;28;20216;-55
2022/01/04 04:57:01;;;;;;;0.70;0.40;;;;;18.10;98679.00;;;;2087055;28;20258;-54
2022/01/04 04:58:02;;;;;;;0.70;0.43;;;;;18.10;98667.00;;;;2086007;28;20220;-54
2022/01/04 04:59:02;;;;;;;0.60;0.50;;;;;18.10;98673.00;;;;2087205;28;20295;-54
2022/01/04 05:00:03;;;;;;;0.90;0.50;;;;;18.10;98672.00;;;;2087432;28;20201;-54
2022/01/04 05:01:03;;;;;;;0.68;0.50;;;;;18.00;98681.00;;;;2087313;28;20220;-54
2022/01/04 05:02:07;;;;;;;0.70;0.40;;;;;18.00;98687.00;;;;2087850;28;20220;-55
2022/01/04 05:03:07;;;;;;;0.60;0.40;;;;;18.00;98683.00;;;;2084062;28;20205;-54
2022/01/04 05:04:07;;;;;;;0.70;0.40;;;;;18.00;98686.00;;;;2087766;28;20237;-55
2022/01/04 05:05:08;;;;;;;0.70;0.40;;;;;18.00;98679.00;;;;2087781;28;20205;-55
2022/01/04 05:06:08;;;;;;;0.80;0.40;;;;;18.10;98688.00;;;;2086865;28;20211;-54